sensor_id;sensor_type;location;lat;lon;timestamp;temperature;humidity
3727;DHT22;1879;45.876;12.300;2023-09-19T00:00:34;21.50;99.90
3727;DHT22;1879;45.876;12.300;2023-09-19T00:03:02;21.50;99.90
3727;DHT22;1879;45.876;12.300;2023-09-19T00:05:35;21.50;99.90
3727;DHT22;1879;45.876;12.300;2023-09-19T00:08:04;21.50;99.90
3727;DHT22;1879;45.876;12.300;2023-09-19T00:10:32;21.40;99.90
3727;DHT22;1879;45.876;12.300;2023-09-19T00:13:01;21.50;99.90
3727;DHT22;1879;45.876;12.300;2023-09-19T00:15:35;21.50;99.90
3727;DHT22;1879;45.876;12.300;2023-09-19T00:18:03;21.40;99.90
3727;DHT22;1879;45.876;12.300;2023-09-19T00:20:35;21.40;99.90
3727;DHT22;1879;45.876;12.300;2023-09-19T00:23:03;21.40;99.90
3727;DHT22;1879;45.876;12.300;2023-09-19T00:25:34;21.30;99.90
3727;DHT22;1879;45.876;12.300;2023-09-19T00:28:03;21.30;99.90
3727;DHT22;1879;45.876;12.300;2023-09-19T00:30:30;21.30;99.90
3727;DHT22;1879;45.876;12.300;2023-09-19T00:32:58;21.30;99.90
3727;DHT22;1879;45.876;12.300;2023-09-19T00:35:26;21.30;99.90
3727;DHT22;1879;45.876;12.300;2023-09-19T00:37:55;21.20;99.90
3727;DHT22;1879;45.876;12.300;2023-09-19T00:40:22;21.30;99.90
3727;DHT22;1879;45.876;12.300;2023-09-19T00:42:49;21.30;99.90
3727;DHT22;1879;45.876;12.300;2023-09-19T00:45:17;21.20;99.90
3727;DHT22;1879;45.876;12.300;2023-09-19T00:47:48;21.20;99.90
3727;DHT22;1879;45.876;12.300;2023-09-19T00:50:17;21.20;99.90
3727;DHT22;1879;45.876;12.300;2023-09-19T00:52:46;21.10;99.90
3727;DHT22;1879;45.876;12.300;2023-09-19T00:55:17;21.20;99.90
3727;DHT22;1879;45.876;12.300;2023-09-19T00:57:45;21.20;99.90
3727;DHT22;1879;45.876;12.300;2023-09-19T01:00:13;21.20;99.90
3727;DHT22;1879;45.876;12.300;2023-09-19T01:02:42;21.10;99.90
3727;DHT22;1879;45.876;12.300;2023-09-19T01:05:09;21.10;99.90
3727;DHT22;1879;45.876;12.300;2023-09-19T01:07:37;21.00;99.90
3727;DHT22;1879;45.876;12.300;2023-09-19T01:10:07;21.00;99.90
3727;DHT22;1879;45.876;12.300;2023-09-19T01:12:57;21.00;99.90
3727;DHT22;1879;45.876;12.300;2023-09-19T01:15:37;21.00;99.90
3727;DHT22;1879;45.876;12.300;2023-09-19T01:18:14;21.00;99.90
3727;DHT22;1879;45.876;12.300;2023-09-19T01:20:50;20.90;99.90
3727;DHT22;1879;45.876;12.300;2023-09-19T01:23:23;20.80;99.90
3727;DHT22;1879;45.876;12.300;2023-09-19T01:26:06;20.80;99.90
3727;DHT22;1879;45.876;12.300;2023-09-19T01:28:54;20.80;99.90
3727;DHT22;1879;45.876;12.300;2023-09-19T01:31:33;20.80;99.90
3727;DHT22;1879;45.876;12.300;2023-09-19T01:34:04;20.80;99.90
3727;DHT22;1879;45.876;12.300;2023-09-19T01:36:34;20.80;99.90
3727;DHT22;1879;45.876;12.300;2023-09-19T01:39:03;20.80;99.90
3727;DHT22;1879;45.876;12.300;2023-09-19T01:41:50;20.80;99.90
3727;DHT22;1879;45.876;12.300;2023-09-19T01:44:24;20.80;99.90
3727;DHT22;1879;45.876;12.300;2023-09-19T01:46:58;20.80;99.90
3727;DHT22;1879;45.876;12.300;2023-09-19T01:49:40;20.80;99.90
3727;DHT22;1879;45.876;12.300;2023-09-19T01:52:12;20.90;99.90
3727;DHT22;1879;45.876;12.300;2023-09-19T01:54:46;20.90;99.90
3727;DHT22;1879;45.876;12.300;2023-09-19T01:57:20;20.90;99.90
3727;DHT22;1879;45.876;12.300;2023-09-19T01:59:54;20.90;99.90
3727;DHT22;1879;45.876;12.300;2023-09-19T02:02:25;20.90;99.90
3727;DHT22;1879;45.876;12.300;2023-09-19T02:04:55;20.80;99.90
3727;DHT22;1879;45.876;12.300;2023-09-19T02:07:22;20.80;99.90
3727;DHT22;1879;45.876;12.300;2023-09-19T02:09:49;20.80;99.90
3727;DHT22;1879;45.876;12.300;2023-09-19T02:12:16;20.80;99.90
3727;DHT22;1879;45.876;12.300;2023-09-19T02:14:43;20.80;99.90
3727;DHT22;1879;45.876;12.300;2023-09-19T02:17:10;20.70;99.90
3727;DHT22;1879;45.876;12.300;2023-09-19T02:19:39;20.70;99.90
3727;DHT22;1879;45.876;12.300;2023-09-19T02:22:07;20.70;99.90
3727;DHT22;1879;45.876;12.300;2023-09-19T02:24:36;20.70;99.90
3727;DHT22;1879;45.876;12.300;2023-09-19T02:27:03;20.70;99.90
3727;DHT22;1879;45.876;12.300;2023-09-19T02:29:31;20.70;99.90
3727;DHT22;1879;45.876;12.300;2023-09-19T02:32:00;20.70;99.90
3727;DHT22;1879;45.876;12.300;2023-09-19T02:34:28;20.70;99.90
3727;DHT22;1879;45.876;12.300;2023-09-19T02:36:56;20.70;99.90
3727;DHT22;1879;45.876;12.300;2023-09-19T02:39:23;20.70;99.90
3727;DHT22;1879;45.876;12.300;2023-09-19T02:41:50;20.70;99.90
3727;DHT22;1879;45.876;12.300;2023-09-19T02:44:17;20.70;99.90
3727;DHT22;1879;45.876;12.300;2023-09-19T02:46:46;20.70;99.90
3727;DHT22;1879;45.876;12.300;2023-09-19T02:49:13;20.70;99.90
3727;DHT22;1879;45.876;12.300;2023-09-19T02:51:40;20.70;99.90
3727;DHT22;1879;45.876;12.300;2023-09-19T02:54:09;20.70;99.90
3727;DHT22;1879;45.876;12.300;2023-09-19T02:56:37;20.70;99.90
3727;DHT22;1879;45.876;12.300;2023-09-19T02:59:04;20.70;99.90
3727;DHT22;1879;45.876;12.300;2023-09-19T03:01:31;20.70;99.90
3727;DHT22;1879;45.876;12.300;2023-09-19T03:03:59;20.80;99.90
3727;DHT22;1879;45.876;12.300;2023-09-19T03:06:26;20.80;99.90
3727;DHT22;1879;45.876;12.300;2023-09-19T03:08:53;20.80;99.90
3727;DHT22;1879;45.876;12.300;2023-09-19T03:11:23;20.70;99.90
3727;DHT22;1879;45.876;12.300;2023-09-19T03:13:52;20.70;99.90
3727;DHT22;1879;45.876;12.300;2023-09-19T03:16:19;20.70;99.90
3727;DHT22;1879;45.876;12.300;2023-09-19T03:18:47;20.60;99.90
3727;DHT22;1879;45.876;12.300;2023-09-19T03:21:15;20.60;99.90
3727;DHT22;1879;45.876;12.300;2023-09-19T03:23:42;20.50;99.90
3727;DHT22;1879;45.876;12.300;2023-09-19T03:26:11;20.50;99.90
3727;DHT22;1879;45.876;12.300;2023-09-19T03:28:41;20.50;99.90
3727;DHT22;1879;45.876;12.300;2023-09-19T03:31:09;20.50;99.90
3727;DHT22;1879;45.876;12.300;2023-09-19T03:33:36;20.40;99.90
3727;DHT22;1879;45.876;12.300;2023-09-19T03:36:04;20.30;99.90
3727;DHT22;1879;45.876;12.300;2023-09-19T03:38:32;20.30;99.90
3727;DHT22;1879;45.876;12.300;2023-09-19T03:41:00;20.30;99.90
3727;DHT22;1879;45.876;12.300;2023-09-19T03:43:27;20.40;99.90
3727;DHT22;1879;45.876;12.300;2023-09-19T03:45:55;20.40;99.90
3727;DHT22;1879;45.876;12.300;2023-09-19T03:48:22;20.50;99.90
3727;DHT22;1879;45.876;12.300;2023-09-19T03:50:49;20.50;99.90
3727;DHT22;1879;45.876;12.300;2023-09-19T03:53:16;20.60;99.90
3727;DHT22;1879;45.876;12.300;2023-09-19T03:55:45;20.60;99.90
3727;DHT22;1879;45.876;12.300;2023-09-19T03:58:12;20.60;99.90
3727;DHT22;1879;45.876;12.300;2023-09-19T04:00:39;20.60;99.90
3727;DHT22;1879;45.876;12.300;2023-09-19T04:03:08;20.60;99.90
3727;DHT22;1879;45.876;12.300;2023-09-19T04:05:36;20.60;99.90
3727;DHT22;1879;45.876;12.300;2023-09-19T04:08:04;20.50;99.90
3727;DHT22;1879;45.876;12.300;2023-09-19T04:10:31;20.50;99.90
3727;DHT22;1879;45.876;12.300;2023-09-19T04:12:58;20.50;99.90
3727;DHT22;1879;45.876;12.300;2023-09-19T04:15:25;20.40;99.90
3727;DHT22;1879;45.876;12.300;2023-09-19T04:17:53;20.50;99.90
3727;DHT22;1879;45.876;12.300;2023-09-19T04:20:21;20.50;99.90
3727;DHT22;1879;45.876;12.300;2023-09-19T04:22:49;20.50;99.90
3727;DHT22;1879;45.876;12.300;2023-09-19T04:25:16;20.50;99.90
3727;DHT22;1879;45.876;12.300;2023-09-19T04:27:44;20.50;99.90
3727;DHT22;1879;45.876;12.300;2023-09-19T04:30:12;20.60;99.90
3727;DHT22;1879;45.876;12.300;2023-09-19T04:32:40;20.70;99.90
3727;DHT22;1879;45.876;12.300;2023-09-19T04:35:08;20.70;99.90
3727;DHT22;1879;45.876;12.300;2023-09-19T04:37:38;20.70;99.90
3727;DHT22;1879;45.876;12.300;2023-09-19T04:40:07;20.80;99.90
3727;DHT22;1879;45.876;12.300;2023-09-19T04:42:39;20.80;99.90
3727;DHT22;1879;45.876;12.300;2023-09-19T04:45:08;20.80;99.90
3727;DHT22;1879;45.876;12.300;2023-09-19T04:47:36;20.80;99.90
3727;DHT22;1879;45.876;12.300;2023-09-19T04:50:06;20.80;99.90
3727;DHT22;1879;45.876;12.300;2023-09-19T04:52:39;20.80;99.90
3727;DHT22;1879;45.876;12.300;2023-09-19T04:57:36;20.80;99.90
3727;DHT22;1879;45.876;12.300;2023-09-19T05:00:05;20.70;99.90
3727;DHT22;1879;45.876;12.300;2023-09-19T05:02:38;20.70;99.90
3727;DHT22;1879;45.876;12.300;2023-09-19T05:05:06;20.60;99.90
3727;DHT22;1879;45.876;12.300;2023-09-19T05:07:33;20.70;99.90
3727;DHT22;1879;45.876;12.300;2023-09-19T05:10:02;20.70;99.90
3727;DHT22;1879;45.876;12.300;2023-09-19T05:12:32;20.70;99.90
3727;DHT22;1879;45.876;12.300;2023-09-19T05:15:00;20.80;99.90
3727;DHT22;1879;45.876;12.300;2023-09-19T05:17:28;20.80;99.90
3727;DHT22;1879;45.876;12.300;2023-09-19T05:19:55;20.70;99.90
3727;DHT22;1879;45.876;12.300;2023-09-19T05:22:23;20.70;99.90
3727;DHT22;1879;45.876;12.300;2023-09-19T05:24:51;20.70;99.90
3727;DHT22;1879;45.876;12.300;2023-09-19T05:27:20;20.70;99.90
3727;DHT22;1879;45.876;12.300;2023-09-19T05:29:47;20.70;99.90
3727;DHT22;1879;45.876;12.300;2023-09-19T05:32:16;20.70;99.90
3727;DHT22;1879;45.876;12.300;2023-09-19T05:34:45;20.70;99.90
3727;DHT22;1879;45.876;12.300;2023-09-19T05:37:13;20.70;99.90
3727;DHT22;1879;45.876;12.300;2023-09-19T05:39:41;20.80;99.90
3727;DHT22;1879;45.876;12.300;2023-09-19T05:42:08;20.70;99.90
3727;DHT22;1879;45.876;12.300;2023-09-19T05:44:36;20.80;99.90
3727;DHT22;1879;45.876;12.300;2023-09-19T05:47:04;20.90;99.90
3727;DHT22;1879;45.876;12.300;2023-09-19T05:49:31;20.90;99.90
3727;DHT22;1879;45.876;12.300;2023-09-19T05:51:58;20.90;99.90
3727;DHT22;1879;45.876;12.300;2023-09-19T05:54:26;20.90;99.90
3727;DHT22;1879;45.876;12.300;2023-09-19T05:56:54;21.00;99.90
3727;DHT22;1879;45.876;12.300;2023-09-19T05:59:21;21.10;99.90
3727;DHT22;1879;45.876;12.300;2023-09-19T06:01:49;21.10;99.90
3727;DHT22;1879;45.876;12.300;2023-09-19T06:04:17;21.20;99.90
3727;DHT22;1879;45.876;12.300;2023-09-19T06:06:45;21.20;99.90
3727;DHT22;1879;45.876;12.300;2023-09-19T06:09:14;21.30;99.90
3727;DHT22;1879;45.876;12.300;2023-09-19T06:11:42;21.40;99.90
3727;DHT22;1879;45.876;12.300;2023-09-19T06:14:09;21.40;99.90
3727;DHT22;1879;45.876;12.300;2023-09-19T06:16:36;21.50;99.90
3727;DHT22;1879;45.876;12.300;2023-09-19T06:19:05;21.50;99.90
3727;DHT22;1879;45.876;12.300;2023-09-19T06:21:34;21.50;99.90
3727;DHT22;1879;45.876;12.300;2023-09-19T06:24:02;21.50;99.90
3727;DHT22;1879;45.876;12.300;2023-09-19T06:26:29;21.50;99.90
3727;DHT22;1879;45.876;12.300;2023-09-19T06:28:56;21.50;99.90
3727;DHT22;1879;45.876;12.300;2023-09-19T06:31:25;21.50;99.90
3727;DHT22;1879;45.876;12.300;2023-09-19T06:33:52;21.60;99.90
3727;DHT22;1879;45.876;12.300;2023-09-19T06:36:21;21.90;99.90
3727;DHT22;1879;45.876;12.300;2023-09-19T06:38:48;22.10;99.90
3727;DHT22;1879;45.876;12.300;2023-09-19T06:41:17;22.10;99.90
3727;DHT22;1879;45.876;12.300;2023-09-19T06:43:44;22.10;99.90
3727;DHT22;1879;45.876;12.300;2023-09-19T06:46:11;22.10;99.90
3727;DHT22;1879;45.876;12.300;2023-09-19T06:48:38;22.10;99.90
3727;DHT22;1879;45.876;12.300;2023-09-19T06:51:06;22.20;99.90
3727;DHT22;1879;45.876;12.300;2023-09-19T13:33:43;35.70;57.40
3727;DHT22;1879;45.876;12.300;2023-09-19T13:36:10;34.50;61.50
3727;DHT22;1879;45.876;12.300;2023-09-19T13:38:39;32.70;66.10
3727;DHT22;1879;45.876;12.300;2023-09-19T13:41:08;31.50;69.40
3727;DHT22;1879;45.876;12.300;2023-09-19T13:43:35;30.40;73.50
3727;DHT22;1879;45.876;12.300;2023-09-19T13:46:02;29.70;76.90
3727;DHT22;1879;45.876;12.300;2023-09-19T13:48:31;28.70;84.80
3727;DHT22;1879;45.876;12.300;2023-09-19T13:51:03;27.60;87.20
3727;DHT22;1879;45.876;12.300;2023-09-19T13:53:30;26.90;94.30
3727;DHT22;1879;45.876;12.300;2023-09-19T13:55:57;26.10;99.90
3727;DHT22;1879;45.876;12.300;2023-09-19T13:58:24;24.80;99.90
3727;DHT22;1879;45.876;12.300;2023-09-19T14:00:52;23.50;99.90
3727;DHT22;1879;45.876;12.300;2023-09-19T14:03:21;22.80;99.90
3727;DHT22;1879;45.876;12.300;2023-09-19T14:05:49;22.60;99.90
3727;DHT22;1879;45.876;12.300;2023-09-19T14:08:17;22.60;99.90
3727;DHT22;1879;45.876;12.300;2023-09-19T14:10:44;22.70;99.90
3727;DHT22;1879;45.876;12.300;2023-09-19T14:13:11;22.90;99.90
3727;DHT22;1879;45.876;12.300;2023-09-19T14:15:40;23.00;99.90
3727;DHT22;1879;45.876;12.300;2023-09-19T14:18:08;23.30;99.90
3727;DHT22;1879;45.876;12.300;2023-09-19T14:20:38;23.50;99.90
3727;DHT22;1879;45.876;12.300;2023-09-19T14:23:07;23.60;99.90
3727;DHT22;1879;45.876;12.300;2023-09-19T14:25:35;23.80;99.90
3727;DHT22;1879;45.876;12.300;2023-09-19T14:28:02;23.90;99.90
3727;DHT22;1879;45.876;12.300;2023-09-19T14:30:29;24.10;99.90
3727;DHT22;1879;45.876;12.300;2023-09-19T14:32:56;24.20;99.90
3727;DHT22;1879;45.876;12.300;2023-09-19T14:35:24;24.40;99.90
3727;DHT22;1879;45.876;12.300;2023-09-19T14:37:51;24.40;99.90
3727;DHT22;1879;45.876;12.300;2023-09-19T14:40:19;24.50;99.90
3727;DHT22;1879;45.876;12.300;2023-09-19T14:42:48;24.70;99.90
3727;DHT22;1879;45.876;12.300;2023-09-19T14:45:15;25.10;99.90
3727;DHT22;1879;45.876;12.300;2023-09-19T14:47:45;25.50;99.90
3727;DHT22;1879;45.876;12.300;2023-09-19T14:50:12;25.80;99.90
3727;DHT22;1879;45.876;12.300;2023-09-19T14:52:41;26.00;99.90
3727;DHT22;1879;45.876;12.300;2023-09-19T14:55:08;26.10;99.90
3727;DHT22;1879;45.876;12.300;2023-09-19T14:57:41;26.20;99.90
3727;DHT22;1879;45.876;12.300;2023-09-19T15:00:11;26.20;99.90
3727;DHT22;1879;45.876;12.300;2023-09-19T15:02:39;26.20;99.90
3727;DHT22;1879;45.876;12.300;2023-09-19T15:05:07;26.20;99.90
3727;DHT22;1879;45.876;12.300;2023-09-19T15:07:35;26.20;99.90
3727;DHT22;1879;45.876;12.300;2023-09-19T15:10:04;26.40;99.90
3727;DHT22;1879;45.876;12.300;2023-09-19T15:12:32;26.40;99.90
3727;DHT22;1879;45.876;12.300;2023-09-19T15:15:03;26.50;99.90
3727;DHT22;1879;45.876;12.300;2023-09-19T15:17:31;26.60;99.90
3727;DHT22;1879;45.876;12.300;2023-09-19T15:19:58;27.00;99.90
3727;DHT22;1879;45.876;12.300;2023-09-19T15:22:25;27.60;99.90
3727;DHT22;1879;45.876;12.300;2023-09-19T15:24:52;28.80;99.90
3727;DHT22;1879;45.876;12.300;2023-09-19T15:27:19;30.10;99.90
3727;DHT22;1879;45.876;12.300;2023-09-19T15:29:46;31.10;99.90
3727;DHT22;1879;45.876;12.300;2023-09-19T15:32:14;32.00;99.90
3727;DHT22;1879;45.876;12.300;2023-09-19T15:34:41;32.50;99.90
3727;DHT22;1879;45.876;12.300;2023-09-19T15:37:08;32.50;98.80
3727;DHT22;1879;45.876;12.300;2023-09-19T15:39:35;32.10;99.30
3727;DHT22;1879;45.876;12.300;2023-09-19T15:42:03;31.80;99.90
3727;DHT22;1879;45.876;12.300;2023-09-19T15:44:30;31.40;98.90
3727;DHT22;1879;45.876;12.300;2023-09-19T15:46:58;30.90;99.00
3727;DHT22;1879;45.876;12.300;2023-09-19T15:49:26;30.30;98.70
3727;DHT22;1879;45.876;12.300;2023-09-19T15:51:53;29.70;99.90
3727;DHT22;1879;45.876;12.300;2023-09-19T15:54:20;29.50;99.60
3727;DHT22;1879;45.876;12.300;2023-09-19T15:56:48;29.20;99.90
3727;DHT22;1879;45.876;12.300;2023-09-19T15:59:17;29.00;99.90
3727;DHT22;1879;45.876;12.300;2023-09-19T16:01:44;28.70;99.90
3727;DHT22;1879;45.876;12.300;2023-09-19T16:04:12;28.40;99.90
3727;DHT22;1879;45.876;12.300;2023-09-19T16:06:41;28.00;99.90
3727;DHT22;1879;45.876;12.300;2023-09-19T16:09:08;27.70;99.90
3727;DHT22;1879;45.876;12.300;2023-09-19T16:11:36;27.40;99.90
3727;DHT22;1879;45.876;12.300;2023-09-19T16:14:03;27.20;99.90
3727;DHT22;1879;45.876;12.300;2023-09-19T16:16:31;27.10;99.90
3727;DHT22;1879;45.876;12.300;2023-09-19T16:19:01;26.90;99.90
3727;DHT22;1879;45.876;12.300;2023-09-19T16:21:31;26.90;99.90
3727;DHT22;1879;45.876;12.300;2023-09-19T16:24:00;26.90;99.90
3727;DHT22;1879;45.876;12.300;2023-09-19T16:26:28;26.80;99.90
3727;DHT22;1879;45.876;12.300;2023-09-19T16:28:56;26.70;99.90
3727;DHT22;1879;45.876;12.300;2023-09-19T16:31:26;26.60;99.90
3727;DHT22;1879;45.876;12.300;2023-09-19T16:33:54;26.40;99.90
3727;DHT22;1879;45.876;12.300;2023-09-19T16:36:23;26.40;99.90
3727;DHT22;1879;45.876;12.300;2023-09-19T16:38:50;26.30;99.90
3727;DHT22;1879;45.876;12.300;2023-09-19T16:41:19;26.20;99.90
3727;DHT22;1879;45.876;12.300;2023-09-19T16:43:46;26.00;99.90
3727;DHT22;1879;45.876;12.300;2023-09-19T16:46:14;26.00;99.90
3727;DHT22;1879;45.876;12.300;2023-09-19T16:48:44;25.90;99.90
3727;DHT22;1879;45.876;12.300;2023-09-19T16:51:13;25.70;99.90
3727;DHT22;1879;45.876;12.300;2023-09-19T16:53:40;25.70;99.90
3727;DHT22;1879;45.876;12.300;2023-09-19T16:56:09;25.50;99.90
3727;DHT22;1879;45.876;12.300;2023-09-19T16:58:38;25.20;99.90
3727;DHT22;1879;45.876;12.300;2023-09-19T17:01:06;25.10;99.90
3727;DHT22;1879;45.876;12.300;2023-09-19T17:03:35;25.20;99.90
3727;DHT22;1879;45.876;12.300;2023-09-19T17:06:03;25.10;99.90
3727;DHT22;1879;45.876;12.300;2023-09-19T17:08:30;24.90;99.90
3727;DHT22;1879;45.876;12.300;2023-09-19T17:11:02;24.80;99.90
3727;DHT22;1879;45.876;12.300;2023-09-19T17:13:29;24.70;99.90
3727;DHT22;1879;45.876;12.300;2023-09-19T17:16:06;24.60;99.90
3727;DHT22;1879;45.876;12.300;2023-09-19T17:18:34;24.50;99.90
3727;DHT22;1879;45.876;12.300;2023-09-19T17:21:02;24.40;99.90
3727;DHT22;1879;45.876;12.300;2023-09-19T17:23:30;24.50;99.90
3727;DHT22;1879;45.876;12.300;2023-09-19T17:26:00;24.40;99.90
3727;DHT22;1879;45.876;12.300;2023-09-19T17:28:28;24.40;99.90
3727;DHT22;1879;45.876;12.300;2023-09-19T17:30:55;24.60;99.90
3727;DHT22;1879;45.876;12.300;2023-09-19T17:33:25;24.70;99.90
3727;DHT22;1879;45.876;12.300;2023-09-19T17:35:53;24.90;99.90
3727;DHT22;1879;45.876;12.300;2023-09-19T17:38:30;24.70;99.90
3727;DHT22;1879;45.876;12.300;2023-09-19T17:41:01;24.90;99.90
3727;DHT22;1879;45.876;12.300;2023-09-19T17:43:31;24.90;99.90
3727;DHT22;1879;45.876;12.300;2023-09-19T17:46:06;24.90;99.90
3727;DHT22;1879;45.876;12.300;2023-09-19T17:48:36;24.70;99.90
3727;DHT22;1879;45.876;12.300;2023-09-19T17:51:03;24.40;99.90
3727;DHT22;1879;45.876;12.300;2023-09-19T17:53:30;24.30;99.90
3727;DHT22;1879;45.876;12.300;2023-09-19T17:55:59;24.20;99.90
3727;DHT22;1879;45.876;12.300;2023-09-19T17:58:27;24.10;99.90
3727;DHT22;1879;45.876;12.300;2023-09-19T18:00:54;24.10;99.90
3727;DHT22;1879;45.876;12.300;2023-09-19T18:03:22;24.00;99.90
3727;DHT22;1879;45.876;12.300;2023-09-19T18:05:52;23.90;99.90
3727;DHT22;1879;45.876;12.300;2023-09-19T18:08:20;23.80;99.90
3727;DHT22;1879;45.876;12.300;2023-09-19T18:10:48;23.80;99.90
3727;DHT22;1879;45.876;12.300;2023-09-19T18:13:15;23.70;99.90
3727;DHT22;1879;45.876;12.300;2023-09-19T18:15:42;23.70;99.90
3727;DHT22;1879;45.876;12.300;2023-09-19T18:18:09;23.60;99.90
3727;DHT22;1879;45.876;12.300;2023-09-19T18:20:37;23.60;99.90
3727;DHT22;1879;45.876;12.300;2023-09-19T18:23:06;23.70;99.90
3727;DHT22;1879;45.876;12.300;2023-09-19T18:25:34;23.60;99.90
3727;DHT22;1879;45.876;12.300;2023-09-19T18:28:00;23.60;99.90
3727;DHT22;1879;45.876;12.300;2023-09-19T18:30:27;23.60;99.90
3727;DHT22;1879;45.876;12.300;2023-09-19T18:32:54;23.60;99.90
3727;DHT22;1879;45.876;12.300;2023-09-19T18:35:21;23.70;99.90
3727;DHT22;1879;45.876;12.300;2023-09-19T18:37:49;23.60;99.90
3727;DHT22;1879;45.876;12.300;2023-09-19T18:40:19;23.70;99.90
3727;DHT22;1879;45.876;12.300;2023-09-19T18:42:46;23.50;99.90
3727;DHT22;1879;45.876;12.300;2023-09-19T18:45:13;23.40;99.90
3727;DHT22;1879;45.876;12.300;2023-09-19T18:47:40;23.30;99.90
3727;DHT22;1879;45.876;12.300;2023-09-19T18:50:08;23.30;99.90
3727;DHT22;1879;45.876;12.300;2023-09-19T18:52:35;23.30;99.90
3727;DHT22;1879;45.876;12.300;2023-09-19T18:55:06;23.40;99.90
3727;DHT22;1879;45.876;12.300;2023-09-19T18:57:36;23.50;99.90
3727;DHT22;1879;45.876;12.300;2023-09-19T19:00:03;23.50;99.90
3727;DHT22;1879;45.876;12.300;2023-09-19T19:02:32;23.50;99.90
3727;DHT22;1879;45.876;12.300;2023-09-19T19:04:59;23.50;99.90
3727;DHT22;1879;45.876;12.300;2023-09-19T19:07:27;23.60;99.90
3727;DHT22;1879;45.876;12.300;2023-09-19T19:09:54;23.60;99.90
3727;DHT22;1879;45.876;12.300;2023-09-19T19:12:21;23.50;99.90
3727;DHT22;1879;45.876;12.300;2023-09-19T19:14:50;23.30;99.90
3727;DHT22;1879;45.876;12.300;2023-09-19T19:17:18;23.10;99.90
3727;DHT22;1879;45.876;12.300;2023-09-19T19:19:47;22.90;99.90
3727;DHT22;1879;45.876;12.300;2023-09-19T19:22:16;22.80;99.90
3727;DHT22;1879;45.876;12.300;2023-09-19T19:24:44;22.80;99.90
3727;DHT22;1879;45.876;12.300;2023-09-19T19:27:11;22.70;99.90
3727;DHT22;1879;45.876;12.300;2023-09-19T19:29:38;22.70;99.90
3727;DHT22;1879;45.876;12.300;2023-09-19T19:32:06;22.60;99.90
3727;DHT22;1879;45.876;12.300;2023-09-19T19:34:34;22.50;99.90
3727;DHT22;1879;45.876;12.300;2023-09-19T19:37:01;22.50;99.90
3727;DHT22;1879;45.876;12.300;2023-09-19T19:39:29;22.60;99.90
3727;DHT22;1879;45.876;12.300;2023-09-19T19:41:56;22.50;99.90
3727;DHT22;1879;45.876;12.300;2023-09-19T19:44:24;22.40;99.90
3727;DHT22;1879;45.876;12.300;2023-09-19T19:46:51;22.30;99.90
3727;DHT22;1879;45.876;12.300;2023-09-19T19:49:20;22.20;99.90
3727;DHT22;1879;45.876;12.300;2023-09-19T19:51:47;22.20;99.90
3727;DHT22;1879;45.876;12.300;2023-09-19T19:54:15;22.30;99.90
3727;DHT22;1879;45.876;12.300;2023-09-19T19:56:42;22.30;99.90
3727;DHT22;1879;45.876;12.300;2023-09-19T19:59:09;22.10;99.90
3727;DHT22;1879;45.876;12.300;2023-09-19T20:01:38;22.10;99.90
3727;DHT22;1879;45.876;12.300;2023-09-19T20:04:06;21.90;99.90
3727;DHT22;1879;45.876;12.300;2023-09-19T20:06:34;22.20;99.90
3727;DHT22;1879;45.876;12.300;2023-09-19T20:09:01;21.70;99.90
3727;DHT22;1879;45.876;12.300;2023-09-19T20:13:59;21.60;99.90
3727;DHT22;1879;45.876;12.300;2023-09-19T20:16:28;21.60;99.90
3727;DHT22;1879;45.876;12.300;2023-09-19T20:18:58;21.60;99.90
3727;DHT22;1879;45.876;12.300;2023-09-19T20:21:26;21.60;99.90
3727;DHT22;1879;45.876;12.300;2023-09-19T20:23:55;21.70;99.90
3727;DHT22;1879;45.876;12.300;2023-09-19T20:26:23;21.60;99.90
3727;DHT22;1879;45.876;12.300;2023-09-19T20:28:51;21.80;99.90
3727;DHT22;1879;45.876;12.300;2023-09-19T20:31:20;21.80;99.90
3727;DHT22;1879;45.876;12.300;2023-09-19T20:33:47;21.80;99.90
3727;DHT22;1879;45.876;12.300;2023-09-19T20:36:15;21.80;99.90
3727;DHT22;1879;45.876;12.300;2023-09-19T20:38:42;21.70;99.90
3727;DHT22;1879;45.876;12.300;2023-09-19T20:41:10;21.60;99.90
3727;DHT22;1879;45.876;12.300;2023-09-19T20:43:39;21.60;99.90
3727;DHT22;1879;45.876;12.300;2023-09-19T20:46:07;21.70;99.90
3727;DHT22;1879;45.876;12.300;2023-09-19T20:51:05;21.60;99.90
3727;DHT22;1879;45.876;12.300;2023-09-19T20:53:34;22.20;99.90
3727;DHT22;1879;45.876;12.300;2023-09-19T20:56:02;21.90;99.90
3727;DHT22;1879;45.876;12.300;2023-09-19T20:58:32;21.90;99.90
3727;DHT22;1879;45.876;12.300;2023-09-19T21:01:03;21.80;99.90
3727;DHT22;1879;45.876;12.300;2023-09-19T21:08:30;21.80;99.90
3727;DHT22;1879;45.876;12.300;2023-09-19T21:10:57;21.40;99.90
3727;DHT22;1879;45.876;12.300;2023-09-19T21:13:24;21.40;99.90
3727;DHT22;1879;45.876;12.300;2023-09-19T21:15:55;21.40;99.90
3727;DHT22;1879;45.876;12.300;2023-09-19T21:18:21;21.50;99.90
3727;DHT22;1879;45.876;12.300;2023-09-19T21:20:48;21.60;99.90
3727;DHT22;1879;45.876;12.300;2023-09-19T21:23:15;21.50;99.90
3727;DHT22;1879;45.876;12.300;2023-09-19T21:25:42;21.40;99.90
3727;DHT22;1879;45.876;12.300;2023-09-19T21:28:16;21.30;99.90
3727;DHT22;1879;45.876;12.300;2023-09-19T21:30:43;21.30;99.90
3727;DHT22;1879;45.876;12.300;2023-09-19T21:35:44;21.00;99.90
3727;DHT22;1879;45.876;12.300;2023-09-19T21:38:11;21.40;99.90
3727;DHT22;1879;45.876;12.300;2023-09-19T21:40:38;21.50;99.90
3727;DHT22;1879;45.876;12.300;2023-09-19T21:43:05;21.40;99.90
3727;DHT22;1879;45.876;12.300;2023-09-19T22:00:22;21.30;99.90
3727;DHT22;1879;45.876;12.300;2023-09-19T22:02:56;21.20;99.90
3727;DHT22;1879;45.876;12.300;2023-09-19T22:05:23;21.10;99.90
3727;DHT22;1879;45.876;12.300;2023-09-19T22:07:52;21.00;99.90
3727;DHT22;1879;45.876;12.300;2023-09-19T22:12:48;20.90;99.90
3727;DHT22;1879;45.876;12.300;2023-09-19T22:15:15;20.80;99.90
3727;DHT22;1879;45.876;12.300;2023-09-19T22:17:42;20.80;99.90
3727;DHT22;1879;45.876;12.300;2023-09-19T22:20:10;20.80;99.90
3727;DHT22;1879;45.876;12.300;2023-09-19T22:22:53;20.80;99.90
3727;DHT22;1879;45.876;12.300;2023-09-19T22:25:22;20.80;99.90
3727;DHT22;1879;45.876;12.300;2023-09-19T22:28:02;20.70;99.90
3727;DHT22;1879;45.876;12.300;2023-09-19T22:30:34;20.70;99.90
3727;DHT22;1879;45.876;12.300;2023-09-19T22:33:04;20.60;99.90
3727;DHT22;1879;45.876;12.300;2023-09-19T22:35:34;20.60;99.90
3727;DHT22;1879;45.876;12.300;2023-09-19T22:38:05;20.60;99.90
3727;DHT22;1879;45.876;12.300;2023-09-19T22:40:34;20.70;99.90
3727;DHT22;1879;45.876;12.300;2023-09-19T22:43:01;20.70;99.90
3727;DHT22;1879;45.876;12.300;2023-09-19T22:45:31;20.60;99.90
3727;DHT22;1879;45.876;12.300;2023-09-19T22:48:00;20.60;99.90
3727;DHT22;1879;45.876;12.300;2023-09-19T22:50:27;20.60;99.90
3727;DHT22;1879;45.876;12.300;2023-09-19T22:52:55;20.60;99.90
3727;DHT22;1879;45.876;12.300;2023-09-19T22:55:27;20.70;99.90
3727;DHT22;1879;45.876;12.300;2023-09-19T22:57:57;20.70;99.90
3727;DHT22;1879;45.876;12.300;2023-09-19T23:00:25;20.80;99.90
3727;DHT22;1879;45.876;12.300;2023-09-19T23:02:52;20.70;99.90
3727;DHT22;1879;45.876;12.300;2023-09-19T23:05:20;20.70;99.90